Time;durP1;ratioP1;P1;durP2;ratioP2;P2;SDS_P1;SDS_P2;PMS_P1;PMS_P2;Temp;Humidity;BMP_temperature;BMP_pressure;BME280_temperature;BME280_humidity;BME280_pressure;Samples;Min_cycle;Max_cycle;Signal;HPM_P1;HPM_P2
2024/02/20 00:01:40;;;;;;;81.70;27.60;;;;;;;-147.86;100.00;6306.89;104815;1268;59583;-45
2024/02/20 00:04:09;;;;;;;108.20;35.40;;;;;;;-147.86;100.00;6518.11;104792;1271;59326;-46
2024/02/20 00:06:38;;;;;;;101.20;34.40;;;;;;;-147.86;100.00;6362.21;104837;1271;70946;-43
2024/02/20 00:09:07;;;;;;;112.50;37.90;;;;;;;-147.86;100.00;6473.17;104848;1266;63924;-45
2024/02/20 00:11:35;;;;;;;109.70;37.60;;;;;;;-147.86;100.00;6610.12;104812;1269;71944;-48
2024/02/20 00:59:14;;;;;;;35.30;15.30;;;;;;;-147.86;100.00;22804.59;102597;1292;601123;-46
2024/02/20 01:01:42;;;;;;;37.50;14.10;;;;;;;-147.86;100.00;7537.98;104794;1266;60816;-45
2024/02/20 01:04:11;;;;;;;44.70;15.30;;;;;;;-147.86;100.00;8433.41;104848;1269;59293;-44
2024/02/20 01:06:39;;;;;;;39.90;14.10;;;;;;;-147.86;100.00;8656.58;105648;1256;71040;-44
2024/02/20 01:09:07;;;;;;;32.00;12.90;;;;;;;-147.86;100.00;8819.97;105640;1262;63931;-46
2024/02/20 01:11:35;;;;;;;29.80;11.90;;;;;;;-147.86;100.00;8960.47;105577;1261;72629;-46
2024/02/20 01:14:03;;;;;;;26.30;10.50;;;;;;;-147.86;100.00;9076.94;105498;1258;239402;-48
2024/02/20 01:16:31;;;;;;;31.40;11.80;;;;;;;-147.86;100.00;9317.21;105815;1256;59279;-46
2024/02/20 01:18:59;;;;;;;22.20;9.90;;;;;;;-147.86;100.00;9452.31;105699;1253;72272;-46
2024/02/20 01:21:27;;;;;;;18.90;8.20;;;;;;;-147.86;100.00;9626.62;105782;1253;64459;-46
2024/02/20 01:23:55;;;;;;;19.00;7.20;;;;;;;-147.86;100.00;9753.20;105768;1254;71417;-44
2024/02/20 01:26:22;;;;;;;18.00;7.00;;;;;;;-147.86;100.00;9989.24;105759;1256;59747;-46
2024/02/20 01:28:51;;;;;;;14.60;6.20;;;;;;;-147.86;100.00;10214.83;105724;1258;59593;-46
2024/02/20 01:31:19;;;;;;;15.50;6.90;;;;;;;-147.86;100.00;10321.64;105738;1253;72023;-44
2024/02/20 01:33:47;;;;;;;14.20;5.90;;;;;;;-147.86;100.00;10559.64;105787;1258;63973;-47
2024/02/20 01:36:15;;;;;;;17.30;5.90;;;;;;;-147.86;100.00;10676.53;105821;1257;71419;-46
2024/02/20 01:38:43;;;;;;;9.30;4.80;;;;;;;-147.86;100.00;10764.69;105751;1256;59747;-47
2024/02/20 01:41:10;;;;;;;10.00;4.80;;;;;;;-147.86;100.00;10944.88;105721;1258;59567;-45
2024/02/20 01:43:38;;;;;;;9.00;4.90;;;;;;;-147.86;100.00;11076.14;105841;1256;71864;-44
2024/02/20 01:46:07;;;;;;;8.60;4.80;;;;;;;-147.86;100.00;11179.84;105821;1257;63153;-44
2024/02/20 01:48:35;;;;;;;11.30;5.60;;;;;;;-147.86;100.00;11191.52;105833;1253;72636;-44
2024/02/20 01:51:03;;;;;;;8.50;4.80;;;;;;;-147.86;100.00;11296.74;105640;1260;59671;-45
2024/02/20 01:53:31;;;;;;;10.70;4.60;;;;;;;-147.86;100.00;11377.93;105739;1253;59644;-45
2024/02/20 01:55:58;;;;;;;9.90;4.50;;;;;;;-147.86;100.00;11510.37;105660;1258;71403;-44
2024/02/20 01:58:26;;;;;;;7.80;5.00;;;;;;;-147.86;100.00;11576.02;105547;1254;63929;-44
2024/02/20 02:00:54;;;;;;;8.50;4.60;;;;;;;-147.86;100.00;11700.31;105612;1259;72650;-46
2024/02/20 02:03:22;;;;;;;16.30;4.70;;;;;;;-147.86;100.00;11738.38;105632;1258;59692;-45
2024/02/20 02:05:50;;;;;;;11.50;5.10;;;;;;;-147.86;100.00;11783.43;105642;1259;59660;-43
2024/02/20 02:08:18;;;;;;;9.30;5.00;;;;;;;-147.86;100.00;11793.17;105667;1259;71737;-47
2024/02/20 02:10:46;;;;;;;10.30;4.70;;;;;;;-147.86;100.00;11974.94;105644;1256;65248;-44
2024/02/20 02:13:15;;;;;;;11.30;5.10;;;;;;;-147.86;100.00;11983.13;105639;1259;72567;-44
2024/02/20 02:15:43;;;;;;;10.50;5.00;;;;;;;-147.86;100.00;12053.81;105684;1258;60413;-44
2024/02/20 02:18:11;;;;;;;11.30;5.10;;;;;;;-147.86;100.00;12096.93;105649;1258;59647;-44
2024/02/20 02:20:39;;;;;;;10.60;5.00;;;;;;;-147.86;100.00;12185.50;105632;1259;71850;-46
2024/02/20 02:23:06;;;;;;;8.40;4.30;;;;;;;-147.86;100.00;12283.77;105622;1254;64972;-46
2024/02/20 02:25:34;;;;;;;11.30;4.90;;;;;;;-147.86;100.00;12332.34;105610;1256;71652;-46
2024/02/20 02:28:02;;;;;;;12.20;5.00;;;;;;;-147.86;100.00;12361.49;105661;1257;59693;-44
2024/02/20 02:30:30;;;;;;;14.40;5.50;;;;;;;-147.86;100.00;12441.51;105649;1256;59752;-43
2024/02/20 02:32:58;;;;;;;11.30;5.80;;;;;;;-147.86;100.00;12469.09;105621;1256;72990;-45
2024/02/20 02:35:26;;;;;;;11.60;5.90;;;;;;;-147.86;100.00;12523.49;105605;1258;64188;-45
2024/02/20 02:37:55;;;;;;;12.50;5.90;;;;;;;-147.86;100.00;12474.18;105592;1256;71355;-43
2024/02/20 02:40:22;;;;;;;9.20;5.10;;;;;;;-147.86;100.00;12551.85;105667;1258;59666;-45
2024/02/20 02:42:50;;;;;;;13.80;5.30;;;;;;;-147.86;100.00;12559.62;105636;1254;60064;-45
2024/02/20 02:45:18;;;;;;;11.30;5.70;;;;;;;-147.86;100.00;12567.77;105606;1256;71813;-44
2024/02/20 02:47:46;;;;;;;10.00;5.50;;;;;;;-147.86;100.00;12501.34;105610;1256;65273;-44
2024/02/20 02:50:14;;;;;;;12.30;4.70;;;;;;;-147.86;100.00;12477.24;105618;1256;72644;-44
2024/02/20 02:52:43;;;;;;;8.80;5.20;;;;;;;-147.86;100.00;12429.09;105659;1256;60425;-44
2024/02/20 02:55:11;;;;;;;10.20;4.70;;;;;;;-147.86;100.00;12466.38;105659;1259;59678;-44
2024/02/20 02:57:39;;;;;;;10.10;4.90;;;;;;;-147.86;100.00;12438.41;105698;1253;71773;-47
2024/02/20 03:00:11;;;;;;;6.70;5.10;;;;;;;-147.86;100.00;12426.76;105687;1254;63893;-43
2024/02/20 03:02:40;;;;;;;10.00;5.20;;;;;;;-147.86;100.00;12164.24;105661;1256;71592;-46
2024/02/20 03:05:08;;;;;;;11.00;5.20;;;;;;;-147.86;100.00;12427.52;109327;1253;60833;-44
2024/02/20 03:07:36;;;;;;;10.40;5.20;;;;;;;-147.86;100.00;12423.25;109336;1252;59969;-44
2024/02/20 03:10:04;;;;;;;9.60;4.90;;;;;;;-147.86;100.00;12474.91;109376;1253;73116;-47
2024/02/20 03:12:31;;;;;;;8.20;4.90;;;;;;;-147.86;100.00;12444.23;109332;1253;65379;-45
2024/02/20 03:15:02;;;;;;;12.20;5.20;;;;;;;-147.86;100.00;12299.39;109329;1253;72644;-45
2024/02/20 03:17:30;;;;;;;10.60;5.80;;;;;;;-147.86;100.00;12499.39;109329;1253;59601;-45
2024/02/20 03:19:58;;;;;;;10.60;5.10;;;;;;;-147.86;100.00;12535.91;109339;1253;60145;-46
2024/02/20 03:22:26;;;;;;;12.40;6.20;;;;;;;-147.86;100.00;12527.36;109383;1253;72137;-45
2024/02/20 03:24:53;;;;;;;13.70;5.00;;;;;;;-147.86;100.00;12511.04;109382;1253;65284;-46
2024/02/20 03:27:21;;;;;;;14.10;6.00;;;;;;;-147.86;100.00;12526.19;109333;1253;71118;-45
2024/02/20 03:29:48;;;;;;;14.70;7.10;;;;;;;-147.86;100.00;12518.80;109338;1253;60450;-44
2024/02/20 03:32:16;;;;;;;15.40;7.20;;;;;;;-147.86;100.00;12540.17;109338;1253;58898;-43
2024/02/20 03:34:44;;;;;;;17.00;6.70;;;;;;;-147.86;100.00;12495.89;109348;1253;73050;-44
2024/02/20 03:37:12;;;;;;;15.10;6.40;;;;;;;-147.86;100.00;12490.05;109377;1253;63947;-45
2024/02/20 03:39:40;;;;;;;17.30;6.50;;;;;;;-147.86;100.00;12391.78;109352;1253;72660;-45
2024/02/20 03:42:07;;;;;;;13.00;6.30;;;;;;;-147.86;100.00;12452.75;109347;1253;59263;-44
2024/02/20 03:44:38;;;;;;;17.90;7.20;;;;;;;-147.86;100.00;12426.33;109354;1253;60024;-46
2024/02/20 03:47:06;;;;;;;16.50;7.20;;;;;;;-147.86;100.00;12183.99;109372;1253;72807;-45
2024/02/20 03:49:33;;;;;;;15.30;7.80;;;;;;;-147.86;100.00;12325.71;109330;1253;63917;-45
2024/02/20 03:52:01;;;;;;;14.10;7.30;;;;;;;-147.86;100.00;12240.24;109345;1253;71336;-46
2024/02/20 03:57:49;;;;;;;20.40;8.10;;;;;;;-147.86;100.00;26993.10;102737;1295;600196;-45
2024/02/20 04:00:18;;;;;;;18.20;8.10;;;;;;;-147.86;100.00;11745.53;104829;1270;60407;-45
2024/02/20 04:02:45;;;;;;;20.10;8.00;;;;;;;-147.86;100.00;12047.97;104910;1270;59377;-44
2024/02/20 04:05:14;;;;;;;17.40;9.00;;;;;;;-147.86;100.00;12054.94;104847;1269;72182;-45
2024/02/20 04:07:47;;;;;;;20.50;8.50;;;;;;;-147.86;100.00;11644.12;104918;1272;63936;-45
2024/02/20 04:10:16;;;;;;;18.30;7.70;;;;;;;-147.86;100.00;11949.67;104839;1267;71455;-45
2024/02/20 04:12:44;;;;;;;20.20;8.40;;;;;;;-147.86;100.00;11773.36;104969;1268;59354;-46
2024/02/20 04:15:13;;;;;;;21.40;8.60;;;;;;;-147.86;100.00;11888.67;105197;1267;59349;-46
2024/02/20 04:17:41;;;;;;;27.00;10.50;;;;;;;-147.86;100.00;11753.91;105187;1267;72271;-44
2024/02/20 04:20:10;;;;;;;14.40;8.20;;;;;;;-147.86;100.00;11768.26;105190;1269;65147;-45
2024/02/20 04:22:38;;;;;;;19.50;8.90;;;;;;;-147.86;100.00;11614.48;105705;1260;71820;-47
2024/02/20 04:25:07;;;;;;;18.30;9.00;;;;;;;-147.86;100.00;11664.56;105684;1260;59755;-46
2024/02/20 04:59:08;;;;;;;18.60;9.20;;;;;;;-147.86;100.00;25179.23;102775;1290;600369;-46
2024/02/20 05:01:36;;;;;;;14.90;7.80;;;;;;;-147.86;100.00;9972.74;105107;1266;59346;-43
2024/02/20 05:04:04;;;;;;;20.90;9.00;;;;;;;-147.86;100.00;10570.12;105065;1269;59286;-48
2024/02/20 05:06:32;;;;;;;21.80;8.70;;;;;;;-147.86;100.00;10713.79;105181;1264;70940;-45
2024/02/20 05:09:00;;;;;;;22.80;9.50;;;;;;;-147.86;100.00;10804.67;105123;1264;64031;-43
2024/02/20 05:11:28;;;;;;;23.10;8.60;;;;;;;-147.86;100.00;10838.06;105022;1269;71179;-44
2024/02/20 05:13:56;;;;;;;20.50;9.10;;;;;;;-147.86;100.00;10807.01;105068;1264;225799;-47
2024/02/20 05:16:24;;;;;;;18.20;9.20;;;;;;;-147.86;100.00;10874.95;105199;1266;59316;-44
2024/02/20 05:18:51;;;;;;;18.10;8.20;;;;;;;-147.86;100.00;10890.11;105199;1266;70945;-45
2024/02/20 05:21:19;;;;;;;20.30;8.10;;;;;;;-147.86;100.00;10927.00;105216;1264;64082;-45
2024/02/20 05:29:18;;;;;;;17.70;7.50;;;;;;;-147.86;100.00;28499.02;102679;1292;600178;-44
2024/02/20 05:31:46;;;;;;;21.60;9.50;;;;;;;-147.86;100.00;12756.55;104862;1266;61653;-44
2024/02/20 05:34:14;;;;;;;22.70;8.80;;;;;;;-147.86;100.00;10565.72;104837;1269;59288;-44
2024/02/20 05:36:41;;;;;;;16.20;8.10;;;;;;;-147.86;100.00;6716.31;104852;1264;70909;-45
2024/02/20 05:39:10;;;;;;;18.10;7.50;;;;;;;-147.86;100.00;3581.89;104869;1266;63985;-44
2024/02/20 05:41:37;;;;;;;17.00;7.80;;;;;;;-147.86;100.00;1817.04;104851;1270;72307;-45
2024/02/20 05:44:05;;;;;;;18.90;8.10;;;;;;;-147.86;100.00;1915.52;104937;1263;250459;-44
2024/02/20 05:46:33;;;;;;;16.40;7.30;;;;;;;-147.86;100.00;2650.64;105191;1267;59290;-45
2024/02/20 05:49:03;;;;;;;17.30;7.70;;;;;;;-147.86;100.00;3383.54;105184;1263;71074;-45
2024/02/20 05:51:32;;;;;;;18.60;8.30;;;;;;;-147.86;100.00;3900.29;105175;1263;63922;-45
2024/02/20 05:54:00;;;;;;;22.10;8.60;;;;;;;-147.86;100.00;4550.00;105091;1267;71327;-44
2024/02/20 05:56:28;;;;;;;18.00;8.30;;;;;;;-147.86;100.00;5007.13;104945;1268;59690;-46
2024/02/20 05:58:56;;;;;;;22.40;7.70;;;;;;;-147.86;100.00;5308.05;104949;1268;59555;-47
2024/02/20 06:01:24;;;;;;;21.20;7.70;;;;;;;-147.86;100.00;5596.19;105072;1263;71842;-46
2024/02/20 06:03:52;;;;;;;22.40;9.00;;;;;;;-147.86;100.00;5755.99;105047;1264;63966;-46
2024/02/20 06:06:20;;;;;;;16.30;8.00;;;;;;;-147.86;100.00;5991.79;105173;1266;71367;-46
2024/02/20 06:08:50;;;;;;;23.50;7.90;;;;;;;-147.86;100.00;6097.68;105081;1266;59760;-45
2024/02/20 06:11:19;;;;;;;19.90;8.10;;;;;;;-147.86;100.00;6012.38;105145;1265;59566;-46
2024/02/20 06:13:48;;;;;;;18.60;7.40;;;;;;;-147.86;100.00;6073.25;105012;1264;71826;-46
2024/02/20 06:16:16;;;;;;;15.60;7.10;;;;;;;-147.86;100.00;6032.90;105479;1261;63933;-47
2024/02/20 06:18:44;;;;;;;17.70;7.10;;;;;;;-147.86;100.00;5909.55;105504;1257;71471;-46
2024/02/20 06:21:11;;;;;;;14.50;7.30;;;;;;;-147.86;100.00;5838.18;105569;1258;59759;-44
2024/02/20 06:23:39;;;;;;;22.30;7.80;;;;;;;-147.86;100.00;5875.81;105481;1261;59583;-46
2024/02/20 06:26:07;;;;;;;15.50;8.20;;;;;;;-147.86;100.00;5918.87;105500;1257;71849;-45
2024/02/20 06:28:38;;;;;;;22.80;7.90;;;;;;;-147.86;100.00;5717.63;105308;1256;64123;-45
2024/02/20 06:31:07;;;;;;;14.60;6.30;;;;;;;-147.86;100.00;7408.67;105552;1257;71398;-48
2024/02/20 06:33:35;;;;;;;15.00;6.70;;;;;;;-147.86;100.00;8848.30;105496;1259;59749;-47
2024/02/20 06:36:04;;;;;;;17.90;6.40;;;;;;;-147.86;100.00;8927.41;105484;1262;59624;-47
2024/02/20 06:38:32;;;;;;;14.20;6.10;;;;;;;-147.86;100.00;8478.31;105524;1256;71887;-48
2024/02/20 06:41:00;;;;;;;13.60;5.80;;;;;;;-147.86;100.00;7404.55;105549;1256;64060;-47
2024/02/20 06:59:20;;;;;;;8.90;4.70;;;;;;;-147.86;100.00;-1414.08;102705;1293;601024;-46
2024/02/20 07:01:48;;;;;;;11.00;5.20;;;;;;;-147.86;100.00;-10099.14;104896;1270;59631;-45
2024/02/20 07:04:16;;;;;;;10.40;5.30;;;;;;;-147.86;100.00;-10792.05;104843;1270;59380;-46
2024/02/20 07:06:44;;;;;;;13.80;5.80;;;;;;;-147.86;100.00;-12462.28;104794;1270;70925;-47
2024/02/20 07:09:13;;;;;;;9.70;5.20;;;;;;;-147.86;100.00;-14530.32;104840;1266;62964;-46
2024/02/20 07:11:47;;;;;;;11.00;4.90;;;;;;;-147.86;100.00;-16599.54;104887;1267;71421;-48
2024/02/20 07:14:15;;;;;;;8.90;4.80;;;;;;;-147.86;100.00;-17609.17;104927;1268;60246;-44
2024/02/20 07:16:44;;;;;;;9.30;4.60;;;;;;;-147.86;100.00;-17609.17;105220;1264;59715;-46
2024/02/20 07:19:12;;;;;;;12.10;4.60;;;;;;;-147.86;100.00;-17609.17;105128;1263;70975;-49
2024/02/20 07:21:40;;;;;;;9.40;4.60;;;;;;;-147.86;100.00;-17609.17;105121;1264;64358;-44
2024/02/20 07:24:07;;;;;;;8.80;4.70;;;;;;;-147.86;100.00;-17609.17;105078;1264;71432;-43
2024/02/20 07:26:35;;;;;;;6.10;4.00;;;;;;;-147.86;100.00;-17609.17;105074;1264;59628;-47
2024/02/20 07:29:03;;;;;;;11.00;3.50;;;;;;;-147.86;100.00;-17609.17;105175;1268;59702;-46
2024/02/20 07:31:30;;;;;;;7.30;3.90;;;;;;;-147.86;100.00;-17609.17;105114;1268;71917;-51
2024/02/20 07:34:02;;;;;;;5.70;3.70;;;;;;;-147.86;100.00;-17609.17;105152;1264;64023;-47
2024/02/20 07:36:37;;;;;;;5.80;3.00;;;;;;;-147.86;100.00;-17609.17;105095;1263;71590;-47
2024/02/20 07:39:05;;;;;;;3.10;2.60;;;;;;;-147.86;100.00;-17609.17;105091;1264;59773;-46
2024/02/20 07:41:34;;;;;;;6.00;2.90;;;;;;;-147.86;100.00;-17609.17;105106;1263;59733;-49
2024/02/20 07:44:02;;;;;;;3.40;2.50;;;;;;;-147.86;100.00;-17609.17;105118;1264;72905;-46
2024/02/20 07:46:30;;;;;;;2.70;2.40;;;;;;;-147.86;100.00;-17609.17;105121;1268;65340;-49
2024/02/20 07:48:58;;;;;;;1.90;1.70;;;;;;;-147.86;100.00;-17609.17;105117;1268;72723;-48
2024/02/20 07:51:26;;;;;;;1.40;1.30;;;;;;;-147.86;100.00;-17609.17;105183;1268;59746;-45
2024/02/20 07:53:54;;;;;;;1.80;1.70;;;;;;;-147.86;100.00;-17609.17;105551;1261;59670;-49
2024/02/20 07:56:23;;;;;;;2.70;2.00;;;;;;;-147.86;100.00;-17609.17;105554;1257;73515;-48
2024/02/20 07:58:51;;;;;;;1.90;1.40;;;;;;;-147.86;100.00;-16966.19;105530;1262;67665;-49
2024/02/20 08:01:22;;;;;;;1.70;1.50;;;;;;;-147.86;100.00;-15386.67;105608;1258;72951;-50
2024/02/20 08:03:54;;;;;;;2.90;1.60;;;;;;;-147.86;100.00;-12818.38;105590;1260;59763;-49
2024/02/20 08:06:22;;;;;;;4.00;1.90;;;;;;;-147.86;99.31;-6390.08;105624;1261;59667;-51
2024/02/20 08:08:50;;;;;;;3.60;1.50;;;;;;;-147.86;98.18;643.23;105566;1259;74462;-51
2024/02/20 08:11:18;;;;;;;1.30;1.20;;;;;;;-147.86;96.99;8186.36;105563;1258;63148;-48
2024/02/20 08:13:47;;;;;;;3.00;1.80;;;;;;;-147.86;96.11;15097.73;105542;1259;74915;-50
2024/02/20 08:16:15;;;;;;;1.50;1.10;;;;;;;-147.86;95.16;24126.41;105517;1260;60464;-48
2024/02/20 08:18:43;;;;;;;3.30;1.80;;;;;;;-147.86;93.85;34298.39;105535;1257;59931;-51
2024/02/20 08:21:12;;;;;;;10.10;2.70;;;;;;;-147.86;90.48;43421.48;105520;1257;71848;-53
2024/02/20 08:23:43;;;;;;;2.50;2.10;;;;;;;-147.86;88.52;46113.18;105559;1257;63251;-51
2024/02/20 08:26:11;;;;;;;2.30;1.80;;;;;;;-147.86;88.39;46349.86;105521;1257;71370;-48
2024/02/20 08:28:41;;;;;;;1.70;1.60;;;;;;;-147.86;88.87;46362.41;105530;1261;59922;-53
2024/02/20 08:31:10;;;;;;;1.50;1.40;;;;;;;-147.86;88.12;46341.24;105511;1257;60535;-49
2024/02/20 08:33:38;;;;;;;2.80;1.40;;;;;;;-147.86;86.65;46367.89;105497;1258;71785;-52
2024/02/20 08:36:06;;;;;;;2.30;1.50;;;;;;;-147.86;86.41;46434.51;105566;1258;63237;-50
2024/02/20 08:38:34;;;;;;;3.70;1.60;;;;;;;-147.86;87.59;46468.21;105617;1257;74931;-48
2024/02/20 08:41:02;;;;;;;3.20;1.90;;;;;;;-147.86;85.32;46469.79;105495;1258;59706;-52
2024/02/20 08:43:30;;;;;;;2.90;1.60;;;;;;;-147.86;82.24;46520.34;105575;1257;60056;-51
2024/02/20 08:45:58;;;;;;;4.10;2.20;;;;;;;-147.86;80.27;46586.96;105481;1258;75035;-54
2024/02/20 08:48:26;;;;;;;4.40;2.60;;;;;;;-147.86;77.84;46626.16;105697;1253;65556;-53
2024/02/20 08:50:54;;;;;;;2.90;2.30;;;;;;;-147.86;75.97;46679.46;105644;1253;72967;-50
2024/02/20 08:53:22;;;;;;;5.80;2.50;;;;;;;-147.86;76.77;46735.50;105772;1257;60207;-54
2024/02/20 08:55:50;;;;;;;5.00;2.90;;;;;;;-147.86;76.91;46755.10;105668;1257;61261;-53
2024/02/20 08:58:19;;;;;;;6.20;2.90;;;;;;;-147.86;77.27;46794.29;105727;1253;73985;-52
2024/02/20 09:00:46;;;;;;;5.00;2.90;;;;;;;-147.86;77.95;46821.34;105694;1253;64739;-54
2024/02/20 09:03:14;;;;;;;5.70;3.00;;;;;;;-147.86;79.55;46841.71;105680;1257;75158;-52
2024/02/20 09:05:42;;;;;;;4.30;2.70;;;;;;;-147.86;81.92;46849.16;105724;1256;61717;-53
2024/02/20 09:08:10;;;;;;;6.50;2.50;;;;;;;-147.86;83.67;46835.05;105741;1254;59875;-58
2024/02/20 09:10:38;;;;;;;3.10;2.50;;;;;;;-147.86;82.88;46804.09;105690;1253;72380;-53
2024/02/20 09:13:06;;;;;;;3.80;2.80;;;;;;;-147.86;80.59;46797.04;105678;1256;64457;-54
2024/02/20 09:15:35;;;;;;;3.20;2.80;;;;;;;-147.86;79.62;46825.25;105717;1254;70232;-57
2024/02/20 09:18:04;;;;;;;4.10;3.00;;;;;;;-147.86;79.75;46849.16;105669;1257;59651;-52
2024/02/20 09:20:35;;;;;;;7.20;2.80;;;;;;;-147.86;78.90;46861.31;105717;1253;60169;-50
2024/02/20 09:23:03;;;;;;;5.80;3.40;;;;;;;-147.86;79.30;46884.44;105642;1253;73645;-54
2024/02/20 09:25:32;;;;;;;5.40;3.10;;;;;;;-147.86;76.89;46892.27;105741;1253;64270;-57
2024/02/20 09:27:59;;;;;;;2.80;2.50;;;;;;;-147.86;74.68;46922.85;105673;1257;74434;-54
2024/02/20 09:30:28;;;;;;;6.50;3.30;;;;;;;-147.86;76.27;46967.14;105709;1258;59735;-54
2024/02/20 09:32:55;;;;;;;6.10;3.10;;;;;;;-147.86;74.38;46931.08;105682;1258;59652;-55
2024/02/20 09:35:23;;;;;;;5.90;3.00;;;;;;;-147.86;72.82;46962.82;105751;1257;73727;-57
2024/02/20 09:37:51;;;;;;;3.70;2.40;;;;;;;-147.86;72.90;46982.82;105661;1257;64959;-56
2024/02/20 09:40:19;;;;;;;3.30;2.60;;;;;;;-147.86;73.33;46994.97;105675;1253;72743;-56
2024/02/20 09:42:49;;;;;;;8.20;3.70;;;;;;;-147.86;75.20;47020.44;105710;1257;59842;-57
2024/02/20 09:45:19;;;;;;;4.10;3.20;;;;;;;-147.86;77.69;47020.84;105695;1257;59644;-57
2024/02/20 09:47:50;;;;;;;8.60;3.60;;;;;;;-147.86;75.37;47009.47;105676;1253;74162;-52
2024/02/20 09:50:24;;;;;;;6.30;2.90;;;;;;;-147.86;73.65;47014.17;105687;1257;67134;-54
2024/02/20 09:52:53;;;;;;;4.30;3.10;;;;;;;-147.86;72.66;47025.15;105675;1253;71526;-55
2024/02/20 09:55:26;;;;;;;5.40;3.10;;;;;;;-147.86;74.04;47046.71;105672;1256;60372;-54
2024/02/20 09:57:57;;;;;;;4.70;2.60;;;;;;;-147.86;76.13;47053.37;105745;1257;59718;-51
2024/02/20 10:00:26;;;;;;;4.70;3.20;;;;;;;-147.86;77.67;47055.33;105681;1253;75242;-53
2024/02/20 10:02:55;;;;;;;5.40;3.00;;;;;;;-147.86;78.20;47052.98;105701;1257;64233;-52
2024/02/20 10:05:23;;;;;;;4.10;2.70;;;;;;;-147.86;80.21;47030.63;105672;1254;72611;-55
2024/02/20 10:07:59;;;;;;;4.40;2.60;;;;;;;-147.86;81.72;47009.08;105707;1253;59758;-56
2024/02/20 10:10:28;;;;;;;4.50;3.00;;;;;;;-147.86;81.05;46967.92;105659;1257;61119;-51
2024/02/20 10:12:59;;;;;;;5.50;3.20;;;;;;;-147.86;79.29;46945.58;105670;1253;72528;-52
2024/02/20 10:15:29;;;;;;;4.80;3.20;;;;;;;-147.86;77.66;46943.62;105676;1257;64247;-53
2024/02/20 10:18:01;;;;;;;3.50;3.20;;;;;;;-147.86;77.99;46948.32;105684;1253;73268;-54
2024/02/20 10:20:30;;;;;;;5.10;3.30;;;;;;;-147.86;76.83;46967.92;105694;1253;59744;-51
2024/02/20 10:23:09;;;;;;;5.80;3.00;;;;;;;-147.86;76.60;46980.07;105710;1257;59964;-55
2024/02/20 10:25:37;;;;;;;4.80;3.00;;;;;;;-147.86;76.19;46983.60;105742;1253;72887;-53
2024/02/20 10:28:06;;;;;;;4.10;2.90;;;;;;;-147.86;76.20;47003.59;105643;1258;64354;-57
2024/02/20 10:30:35;;;;;;;4.00;3.30;;;;;;;-147.86;76.12;47013.78;105663;1257;72492;-55
2024/02/20 10:33:04;;;;;;;5.10;3.10;;;;;;;-147.86;77.03;47005.55;105631;1259;59672;-53
2024/02/20 10:35:35;;;;;;;5.00;3.40;;;;;;;-147.86;77.35;47020.45;105723;1257;60756;-56
2024/02/20 10:38:04;;;;;;;6.30;3.00;;;;;;;-147.86;75.60;47016.52;105693;1253;72879;-56
2024/02/20 10:40:33;;;;;;;4.40;3.20;;;;;;;-147.86;75.58;47025.15;105711;1257;64731;-51
2024/02/20 10:43:01;;;;;;;6.00;3.80;;;;;;;-147.86;76.22;47030.24;105675;1257;74420;-56
2024/02/20 10:45:29;;;;;;;4.40;3.20;;;;;;;-147.86;76.11;47028.28;105625;1260;60210;-54
2024/02/20 10:47:59;;;;;;;4.00;3.50;;;;;;;-147.86;77.21;47026.32;105644;1257;59757;-51
2024/02/20 10:50:28;;;;;;;5.40;3.90;;;;;;;-147.86;76.87;47032.20;105695;1253;72838;-55
2024/02/20 10:52:59;;;;;;;5.50;4.20;;;;;;;-147.86;75.69;47026.71;105636;1256;66276;-54
2024/02/20 10:55:32;;;;;;;5.90;4.00;;;;;;;-147.86;77.33;47032.20;105616;1261;72724;-57
2024/02/20 10:58:02;;;;;;;5.30;3.80;;;;;;;-147.86;77.78;47023.58;105706;1257;59729;-55
2024/02/20 11:00:35;;;;;;;3.90;3.60;;;;;;;-147.86;78.25;47032.20;105695;1257;59633;-57
2024/02/20 11:03:06;;;;;;;5.20;3.60;;;;;;;-147.86;79.93;47010.25;105661;1258;74070;-51
2024/02/20 11:05:34;;;;;;;5.50;3.90;;;;;;;-147.86;80.02;47000.84;105723;1258;64356;-56
2024/02/20 11:08:09;;;;;;;3.80;3.40;;;;;;;-147.86;79.88;46993.40;105634;1260;73056;-57
2024/02/20 11:10:40;;;;;;;4.30;3.40;;;;;;;-147.86;78.69;46983.60;105675;1253;60648;-52
2024/02/20 11:13:22;;;;;;;6.60;4.60;;;;;;;-147.86;78.30;46984.38;105729;1253;62161;-54
2024/02/20 11:15:51;;;;;;;4.20;3.50;;;;;;;-147.86;77.88;46982.43;105685;1253;74386;-54
2024/02/20 11:18:20;;;;;;;7.20;4.30;;;;;;;-147.86;79.06;46993.00;105685;1253;67191;-54
2024/02/20 11:21:01;;;;;;;10.00;5.40;;;;;;;-147.86;79.97;46995.75;105735;1254;74820;-56
2024/02/20 11:23:32;;;;;;;8.40;4.60;;;;;;;-147.86;81.24;46981.64;105685;1257;60491;-54
2024/02/20 11:26:07;;;;;;;7.90;5.00;;;;;;;-147.86;82.35;46952.24;105678;1257;60637;-54
2024/02/20 11:28:36;;;;;;;8.00;5.30;;;;;;;-147.86;83.46;46914.22;105697;1253;74009;-51
2024/02/20 11:31:05;;;;;;;10.60;5.00;;;;;;;-147.86;84.52;46887.96;105688;1253;64265;-55
2024/02/20 11:33:35;;;;;;;6.10;4.20;;;;;;;-147.86;85.06;46858.57;105709;1258;74039;-56
2024/02/20 11:36:04;;;;;;;8.20;5.10;;;;;;;-147.86;85.31;46804.09;105696;1257;61240;-52
2024/02/20 11:38:34;;;;;;;4.70;3.50;;;;;;;-147.86;84.54;46757.45;105753;1254;60892;-54
2024/02/20 11:41:06;;;;;;;3.30;2.90;;;;;;;-147.86;82.64;46770.38;105661;1256;74866;-55
2024/02/20 11:43:34;;;;;;;3.40;3.00;;;;;;;-147.86;82.49;46760.20;105630;1253;65795;-56
2024/02/20 11:46:02;;;;;;;4.90;3.40;;;;;;;-147.86;80.89;46764.89;105693;1253;72995;-54
2024/02/20 11:48:31;;;;;;;4.10;3.10;;;;;;;-147.86;79.79;46800.95;105726;1253;60491;-53
2024/02/20 11:51:00;;;;;;;6.60;3.20;;;;;;;-147.86;79.58;46826.82;105703;1253;60640;-50
2024/02/20 11:53:28;;;;;;;4.70;2.50;;;;;;;-147.86;79.96;46838.19;105671;1253;75804;-52
2024/02/20 11:55:57;;;;;;;3.80;3.20;;;;;;;-147.86;81.09;46849.16;105667;1258;64818;-54
2024/02/20 11:58:25;;;;;;;3.00;2.70;;;;;;;-147.86;81.35;46820.55;105685;1258;74929;-54
2024/02/20 12:01:02;;;;;;;4.00;3.20;;;;;;;-147.86;80.75;46831.92;105664;1254;60545;-54
2024/02/20 12:03:33;;;;;;;4.00;2.70;;;;;;;-147.86;80.64;46841.32;105685;1253;61083;-58
2024/02/20 12:06:08;;;;;;;2.70;2.50;;;;;;;-147.86;80.30;46837.40;105665;1256;73898;-55
2024/02/20 12:08:53;;;;;;;2.60;2.40;;;;;;;-147.86;80.33;46847.60;105698;1253;65449;-53
2024/02/20 12:11:29;;;;;;;4.30;2.60;;;;;;;-147.86;80.63;46847.59;105727;1253;72786;-56
2024/02/20 12:14:03;;;;;;;4.00;2.70;;;;;;;-147.86;80.66;46858.18;105637;1253;61214;-56
2024/02/20 12:16:36;;;;;;;4.60;2.80;;;;;;;-147.86;79.88;46866.80;105705;1257;60447;-51
2024/02/20 12:19:05;;;;;;;3.80;3.00;;;;;;;-147.86;79.98;46874.24;105695;1257;73734;-54
2024/02/20 12:21:45;;;;;;;5.20;3.10;;;;;;;-147.86;80.91;46893.45;105684;1255;64527;-51
2024/02/20 12:24:13;;;;;;;4.90;3.20;;;;;;;-147.86;81.74;46873.46;105675;1257;72543;-51
2024/02/20 12:26:41;;;;;;;4.90;2.80;;;;;;;-147.86;82.58;46868.76;105620;1261;60553;-54
2024/02/20 12:29:09;;;;;;;4.70;2.80;;;;;;;-147.86;82.75;46845.64;105715;1257;60388;-58
2024/02/20 12:31:36;;;;;;;4.40;2.60;;;;;;;-147.86;82.52;46822.90;105683;1254;73553;-54
2024/02/20 12:34:05;;;;;;;3.70;2.70;;;;;;;-147.86;82.61;46830.74;105651;1254;64322;-54
2024/02/20 12:36:34;;;;;;;3.40;2.40;;;;;;;-147.86;82.00;46820.55;105686;1253;72969;-54
2024/02/20 12:39:02;;;;;;;2.50;2.30;;;;;;;-147.86;81.31;46819.77;105663;1253;60531;-54
2024/02/20 12:41:30;;;;;;;5.10;2.10;;;;;;;-147.86;81.97;46825.65;105660;1257;60442;-53
2024/02/20 12:43:59;;;;;;;3.80;2.10;;;;;;;-147.86;82.46;46825.25;105702;1257;76300;-54
2024/02/20 12:46:27;;;;;;;2.90;2.20;;;;;;;-147.86;82.43;46820.55;105692;1257;66759;-51
2024/02/20 12:48:54;;;;;;;3.00;2.30;;;;;;;-147.86;82.78;46805.65;105667;1258;74957;-50
2024/02/20 12:51:24;;;;;;;2.90;2.70;;;;;;;-147.86;82.90;46789.20;105697;1257;60368;-55